createdAt,value
2023-05-15T00:01:48.103Z,8.85
2023-05-15T00:04:16.513Z,8.98
2023-05-15T00:06:44.421Z,6.38
2023-05-15T00:09:12.523Z,5.40
2023-05-15T00:11:40.272Z,5.43
2023-05-15T00:14:08.257Z,7.30
2023-05-15T00:16:36.132Z,7.30
2023-05-15T00:19:04.227Z,7.20
2023-05-15T00:21:31.928Z,7.68
2023-05-15T00:23:59.857Z,6.25
2023-05-15T00:26:27.624Z,8.57
2023-05-15T00:28:55.663Z,5.63
2023-05-15T00:31:25.073Z,6.05
2023-05-15T00:33:53.056Z,6.95
2023-05-15T00:36:22.078Z,8.90
2023-05-15T00:38:52.024Z,4.93
2023-05-15T00:41:22.652Z,7.13
2023-05-15T00:43:52.293Z,8.40
2023-05-15T00:46:21.990Z,5.45
2023-05-15T00:48:51.821Z,7.05
2023-05-15T00:51:19.604Z,9.35
2023-05-15T00:53:50.685Z,9.38
2023-05-15T00:56:19.304Z,4.80
2023-05-15T00:58:48.843Z,5.22
2023-05-15T01:01:17.931Z,7.47
2023-05-15T01:03:46.754Z,8.52
2023-05-15T01:06:14.523Z,8.48
2023-05-15T01:08:47.834Z,5.60
2023-05-15T01:11:16.963Z,5.95
2023-05-15T01:13:47.110Z,7.15
2023-05-15T01:16:14.938Z,5.55
2023-05-15T01:18:43.049Z,6.47
2023-05-15T01:21:27.534Z,8.65
2023-05-15T01:24:04.597Z,7.28
2023-05-15T01:26:51.124Z,8.75
2023-05-15T01:29:22.098Z,7.32
2023-05-15T01:32:04.554Z,6.45
2023-05-15T01:34:48.724Z,6.55
2023-05-15T01:37:20.543Z,9.18
2023-05-15T01:39:53.935Z,8.30
2023-05-15T01:42:26.053Z,6.85
2023-05-15T01:44:56.783Z,5.55
2023-05-15T01:47:38.298Z,7.15
2023-05-15T01:50:10.052Z,7.13
2023-05-15T01:52:41.567Z,7.38
2023-05-15T01:55:09.912Z,8.10
2023-05-15T01:57:38.390Z,6.00
2023-05-15T02:00:08.715Z,7.85
2023-05-15T02:02:43.406Z,11.27
2023-05-15T02:05:14.281Z,7.00
2023-05-15T02:07:46.437Z,9.38
2023-05-15T02:10:17.950Z,8.02
2023-05-15T02:12:49.539Z,5.40
2023-05-15T02:15:19.263Z,6.15
2023-05-15T02:17:47.832Z,16.10
2023-05-15T02:20:15.858Z,7.38
2023-05-15T02:22:43.988Z,9.48
2023-05-15T02:25:11.906Z,11.40
2023-05-15T02:27:43.602Z,11.13
2023-05-15T02:30:49.524Z,7.28
2023-05-15T02:33:20.001Z,5.28
2023-05-15T02:35:58.876Z,12.35
2023-05-15T02:38:34.556Z,7.22
2023-05-15T02:41:03.492Z,8.82
2023-05-15T02:43:36.247Z,5.25
2023-05-15T02:46:05.503Z,10.35
2023-05-15T02:48:37.841Z,7.93
2023-05-15T02:51:06.936Z,6.88
2023-05-15T02:53:39.333Z,7.90
2023-05-15T02:56:07.509Z,11.50
2023-05-15T02:58:36.126Z,6.18
2023-05-15T03:01:04.737Z,5.75
2023-05-15T03:03:32.800Z,5.82
2023-05-15T03:06:01.110Z,6.65
2023-05-15T03:08:29.109Z,5.88
2023-05-15T03:10:57.951Z,6.55
2023-05-15T03:13:26.051Z,8.63
2023-05-15T03:15:54.052Z,4.93
2023-05-15T03:18:21.978Z,10.38
2023-05-15T03:20:51.082Z,8.63
2023-05-15T03:23:18.785Z,8.10
2023-05-15T03:25:47.185Z,5.40
2023-05-15T03:28:14.929Z,6.07
2023-05-15T03:30:45.212Z,7.05
2023-05-15T03:33:12.890Z,5.55
2023-05-15T03:35:40.825Z,5.70
2023-05-15T03:38:08.526Z,7.78
2023-05-15T03:40:38.259Z,5.72
2023-05-15T03:43:06.579Z,5.65
2023-05-15T03:45:37.903Z,6.85
2023-05-15T03:48:06.011Z,6.15
2023-05-15T03:50:34.157Z,9.75
2023-05-15T03:53:01.950Z,9.45
2023-05-15T03:55:30.031Z,6.88
2023-05-15T03:57:58.960Z,7.05
2023-05-15T04:00:27.151Z,6.53
2023-05-15T04:02:55.134Z,9.07
2023-05-15T04:05:23.362Z,5.20
2023-05-15T04:07:51.428Z,7.10
2023-05-15T04:10:19.527Z,5.97
2023-05-15T04:12:48.001Z,7.80
2023-05-15T04:15:26.253Z,7.63
2023-05-15T04:17:55.137Z,5.88
2023-05-15T04:20:24.797Z,4.90
2023-05-15T04:22:53.235Z,6.07
2023-05-15T04:25:21.495Z,9.07
2023-05-15T04:27:49.477Z,8.75
2023-05-15T04:30:17.742Z,5.63
2023-05-15T04:32:45.970Z,7.60
2023-05-15T04:35:15.346Z,7.82
2023-05-15T04:37:45.514Z,5.30
2023-05-15T04:40:16.557Z,8.30
2023-05-15T04:42:44.655Z,9.02
2023-05-15T04:45:12.802Z,7.60
2023-05-15T04:47:40.878Z,8.20
2023-05-15T04:50:09.273Z,8.77
2023-05-15T04:52:36.997Z,7.18
2023-05-15T04:55:05.540Z,7.03
2023-05-15T04:57:33.216Z,5.93
2023-05-15T05:00:01.357Z,5.57
2023-05-15T05:02:29.232Z,5.18
2023-05-15T05:07:25.810Z,6.68
2023-05-15T05:09:53.735Z,7.57
2023-05-15T05:12:21.448Z,6.00
2023-05-15T05:14:49.382Z,5.50
2023-05-15T05:17:17.392Z,5.68
2023-05-15T05:19:45.365Z,6.88
2023-05-15T05:22:12.989Z,7.88
2023-05-15T05:24:40.976Z,7.40
2023-05-15T05:27:08.703Z,8.10
2023-05-15T05:29:36.644Z,6.93
2023-05-15T05:32:04.555Z,6.57
2023-05-15T05:34:32.456Z,6.88
2023-05-15T05:37:00.120Z,5.57
2023-05-15T05:39:28.063Z,7.45
2023-05-15T05:41:55.891Z,7.40
2023-05-15T05:44:24.523Z,7.25
2023-05-15T05:46:53.132Z,7.13
2023-05-15T05:49:21.091Z,10.05
2023-05-15T05:51:48.805Z,5.65
2023-05-15T05:54:18.306Z,8.02
2023-05-15T05:56:46.559Z,12.18
2023-05-15T05:59:14.743Z,13.48
2023-05-15T06:01:42.865Z,13.63
2023-05-15T06:04:10.831Z,11.70
2023-05-15T06:06:38.559Z,9.48
2023-05-15T06:09:06.510Z,9.30
2023-05-15T06:11:34.644Z,6.78
2023-05-15T06:14:02.608Z,6.97
2023-05-15T06:16:30.380Z,8.52
2023-05-15T06:18:58.389Z,8.40
2023-05-15T06:21:26.293Z,5.75
2023-05-15T06:23:54.205Z,11.13
2023-05-15T06:26:22.351Z,9.52
2023-05-15T06:28:50.281Z,9.45
2023-05-15T06:31:18.077Z,8.93
2023-05-15T06:33:46.170Z,10.02
2023-05-15T06:36:13.907Z,9.85
2023-05-15T06:38:41.894Z,7.55
2023-05-15T06:41:09.570Z,8.15
2023-05-15T06:43:38.431Z,11.07
2023-05-15T06:46:06.429Z,12.88
2023-05-15T06:48:34.579Z,9.85
2023-05-15T06:51:02.283Z,8.27
2023-05-15T06:53:30.941Z,8.73
2023-05-15T06:55:58.909Z,8.48
2023-05-15T06:58:26.922Z,8.93
2023-05-15T07:00:56.287Z,8.07
2023-05-15T07:03:24.877Z,17.27
2023-05-15T07:05:53.396Z,10.85
2023-05-15T07:08:21.421Z,8.45
2023-05-15T07:10:50.012Z,10.25
2023-05-15T07:13:18.775Z,18.17
2023-05-15T07:15:46.602Z,17.58
2023-05-15T07:18:14.654Z,22.77
2023-05-15T07:20:42.336Z,24.50
2023-05-15T07:23:10.679Z,21.88
2023-05-15T07:25:38.454Z,27.10
2023-05-15T07:28:06.344Z,22.27
2023-05-15T07:30:34.198Z,23.17
2023-05-15T07:33:02.320Z,21.92
2023-05-15T07:35:29.988Z,13.32
2023-05-15T07:37:57.952Z,15.57
2023-05-15T07:40:25.714Z,13.02
2023-05-15T07:42:53.625Z,12.10
2023-05-15T07:45:21.505Z,12.13
2023-05-15T07:47:50.694Z,12.77
2023-05-15T07:50:18.707Z,9.20
2023-05-15T07:52:46.647Z,15.60
2023-05-15T07:55:14.512Z,13.25
2023-05-15T07:57:42.553Z,13.10
2023-05-15T08:00:12.948Z,10.85
2023-05-15T08:02:42.965Z,12.73
2023-05-15T08:05:10.845Z,12.15
2023-05-15T08:07:38.725Z,8.27
2023-05-15T08:10:07.644Z,9.10
2023-05-15T08:12:35.667Z,7.55
2023-05-15T08:15:03.554Z,9.30
2023-05-15T08:17:31.531Z,10.38
2023-05-15T08:19:59.203Z,8.93
2023-05-15T08:22:27.116Z,9.82
2023-05-15T08:24:54.757Z,11.20
2023-05-15T08:27:22.669Z,11.32
2023-05-15T08:29:50.418Z,8.43
2023-05-15T08:32:18.566Z,11.48
2023-05-15T08:34:46.242Z,8.88
2023-05-15T08:37:14.268Z,10.70
2023-05-15T08:39:42.079Z,9.35
2023-05-15T08:42:21.798Z,9.02
2023-05-15T08:44:50.134Z,13.02
2023-05-15T08:47:20.878Z,9.95
2023-05-15T08:50:00.667Z,9.20
2023-05-15T08:52:30.119Z,12.25
2023-05-15T08:54:59.498Z,11.40
2023-05-15T08:57:28.402Z,12.65
2023-05-15T08:59:56.827Z,19.65
2023-05-15T09:02:26.382Z,13.35
2023-05-15T09:04:54.245Z,11.98
2023-05-15T09:07:23.163Z,13.68
2023-05-15T09:09:51.445Z,17.55
2023-05-15T09:12:20.443Z,13.68
2023-05-15T09:14:48.490Z,18.65
2023-05-15T09:17:16.842Z,12.43
2023-05-15T09:19:44.486Z,15.40
2023-05-15T09:22:24.444Z,15.60
2023-05-15T09:24:53.399Z,19.10
2023-05-15T09:27:21.530Z,14.05
2023-05-15T09:29:51.439Z,16.05
2023-05-15T09:32:20.121Z,20.50
2023-05-15T09:34:48.012Z,20.33
2023-05-15T09:37:31.134Z,16.77
2023-05-15T09:40:09.619Z,15.10
2023-05-15T09:42:37.853Z,13.98
2023-05-15T09:45:06.540Z,14.30
2023-05-15T09:47:34.994Z,15.95
2023-05-15T09:50:03.098Z,17.00
2023-05-15T09:52:31.865Z,22.73
2023-05-15T09:54:59.622Z,16.50
2023-05-15T09:57:27.686Z,18.05
2023-05-15T09:59:55.351Z,24.05
2023-05-15T10:02:24.628Z,16.33
2023-05-15T10:04:57.081Z,14.63
2023-05-15T10:07:32.740Z,15.15
2023-05-15T10:10:02.466Z,15.80
2023-05-15T10:12:32.482Z,15.27
2023-05-15T10:15:01.672Z,18.20
2023-05-15T10:17:35.262Z,13.77
2023-05-15T10:20:07.074Z,13.10
2023-05-15T10:22:41.311Z,17.45
2023-05-15T10:25:13.364Z,13.75
2023-05-15T10:27:42.599Z,14.27
2023-05-15T10:30:15.439Z,15.27
2023-05-15T10:32:45.062Z,15.63
2023-05-15T10:35:13.188Z,16.27
2023-05-15T10:37:41.336Z,12.10
2023-05-15T10:40:13.017Z,11.25
2023-05-15T10:42:44.847Z,13.60
2023-05-15T10:45:13.349Z,12.60
2023-05-15T10:47:43.679Z,13.45
2023-05-15T10:50:13.444Z,12.85
2023-05-15T10:52:42.219Z,14.55
2023-05-15T10:55:14.899Z,15.55
2023-05-15T10:57:45.044Z,14.63
2023-05-15T11:00:27.143Z,13.23
2023-05-15T11:02:57.293Z,12.43
2023-05-15T11:05:25.897Z,15.80
2023-05-15T11:08:26.004Z,14.23
2023-05-15T11:10:54.504Z,15.70
2023-05-15T11:13:22.661Z,19.52
2023-05-15T11:15:50.461Z,24.55
2023-05-15T11:18:19.841Z,17.52
2023-05-15T11:21:05.870Z,15.10
2023-05-15T11:23:41.549Z,20.17
2023-05-15T11:26:09.403Z,16.02
2023-05-15T11:28:43.539Z,16.38
2023-05-15T11:31:11.500Z,18.15
2023-05-15T11:33:40.673Z,17.40
2023-05-15T11:36:08.978Z,19.05
2023-05-15T11:38:40.663Z,15.82
2023-05-15T11:41:19.868Z,15.52
2023-05-15T11:43:49.002Z,17.50
2023-05-15T11:46:17.465Z,14.50
2023-05-15T11:48:49.958Z,14.70
2023-05-15T11:51:21.785Z,18.83
2023-05-15T11:53:56.757Z,16.63
2023-05-15T11:56:28.141Z,17.33
2023-05-15T11:58:58.002Z,16.45
2023-05-15T12:01:26.676Z,19.90
2023-05-15T12:03:55.331Z,18.20
2023-05-15T12:06:23.395Z,18.92
2023-05-15T12:08:52.858Z,19.92
2023-05-15T12:11:24.946Z,15.93
2023-05-15T12:13:54.572Z,20.23
2023-05-15T12:16:29.181Z,17.70
2023-05-15T12:18:58.146Z,21.02
2023-05-15T12:21:28.967Z,17.65
2023-05-15T12:24:07.173Z,19.65
2023-05-15T12:26:36.225Z,21.17
2023-05-15T12:29:05.436Z,19.20
2023-05-15T12:31:35.912Z,17.42
2023-05-15T12:34:04.365Z,17.27
2023-05-15T12:36:32.267Z,17.77
2023-05-15T12:39:07.941Z,17.90
2023-05-15T12:41:38.976Z,21.38
2023-05-15T12:44:07.049Z,15.98
2023-05-15T12:46:34.769Z,16.52
2023-05-15T12:49:02.823Z,17.25
2023-05-15T12:51:30.592Z,18.48
2023-05-15T12:53:58.911Z,15.20
2023-05-15T12:56:26.677Z,20.00
2023-05-15T12:58:56.029Z,16.75
2023-05-15T13:01:23.836Z,17.25
2023-05-15T13:03:53.021Z,16.77
2023-05-15T13:06:23.917Z,16.02
2023-05-15T13:08:54.096Z,16.35
2023-05-15T13:11:22.491Z,18.23
2023-05-15T13:13:52.950Z,16.90
2023-05-15T13:16:22.237Z,17.60
2023-05-15T13:18:50.791Z,16.13
2023-05-15T13:21:19.261Z,18.27
2023-05-15T13:23:47.314Z,21.05
2023-05-15T13:26:15.053Z,18.75
2023-05-15T13:28:43.082Z,19.42
2023-05-15T13:31:10.955Z,21.00
2023-05-15T13:33:39.453Z,21.35
2023-05-15T13:36:07.412Z,21.90
2023-05-15T13:38:35.359Z,18.42
2023-05-15T13:41:04.067Z,17.88
2023-05-15T13:43:32.038Z,18.02
2023-05-15T13:45:59.796Z,17.23
2023-05-15T13:48:27.776Z,16.88
2023-05-15T13:50:55.426Z,19.83
2023-05-15T13:53:23.809Z,18.38
2023-05-15T13:55:51.567Z,20.08
2023-05-15T13:58:19.668Z,20.85
2023-05-15T14:00:48.520Z,21.08
2023-05-15T14:03:16.552Z,21.80
2023-05-15T14:05:44.401Z,21.50
2023-05-15T14:08:12.387Z,19.00
2023-05-15T14:10:40.502Z,21.73
2023-05-15T14:13:08.504Z,19.70
2023-05-15T14:15:36.160Z,21.35
2023-05-15T14:18:04.224Z,23.45
2023-05-15T14:20:31.974Z,23.85
2023-05-15T14:22:59.931Z,20.58
2023-05-15T14:25:27.705Z,20.05
2023-05-15T14:27:55.671Z,21.25
2023-05-15T14:30:23.613Z,23.27
2023-05-15T14:32:51.736Z,26.35
2023-05-15T14:35:19.639Z,23.75
2023-05-15T14:37:47.682Z,23.58
2023-05-15T14:40:15.562Z,18.95
2023-05-15T14:42:44.095Z,19.38
2023-05-15T14:45:11.857Z,19.83
2023-05-15T14:47:39.933Z,21.58
2023-05-15T14:50:08.074Z,19.63
2023-05-15T14:52:36.094Z,20.40
2023-05-15T14:55:09.599Z,20.48
2023-05-15T14:57:38.862Z,22.00
2023-05-15T15:00:08.216Z,21.60
2023-05-15T15:02:36.532Z,20.52
2023-05-15T15:05:04.925Z,20.85
2023-05-15T15:08:03.766Z,22.92
2023-05-15T15:10:32.891Z,26.83
2023-05-15T15:13:01.292Z,25.58
2023-05-15T15:15:30.306Z,25.63
2023-05-15T15:17:58.822Z,21.42
2023-05-15T15:20:28.086Z,22.75
2023-05-15T15:22:56.556Z,23.95
2023-05-15T15:25:24.440Z,24.65
2023-05-15T15:27:52.925Z,23.33
2023-05-15T15:30:20.729Z,28.73
2023-05-15T15:32:48.757Z,23.30
2023-05-15T15:35:16.498Z,28.52
2023-05-15T15:37:44.398Z,25.52
2023-05-15T15:40:12.836Z,22.90
2023-05-15T15:42:40.957Z,23.58
2023-05-15T15:45:08.882Z,21.08
2023-05-15T15:47:36.947Z,25.60
2023-05-15T15:50:05.035Z,21.08
2023-05-15T15:52:33.301Z,22.48
2023-05-15T15:55:00.950Z,23.58
2023-05-15T15:57:32.757Z,27.40
2023-05-15T16:00:00.463Z,22.08
2023-05-15T16:02:28.760Z,21.25
2023-05-15T16:04:56.598Z,22.70
2023-05-15T16:07:24.568Z,25.15
2023-05-15T16:10:00.229Z,22.88
2023-05-15T16:12:32.189Z,20.20
2023-05-15T16:15:06.866Z,20.10
2023-05-15T16:17:41.779Z,21.10
2023-05-15T16:20:10.017Z,19.45
2023-05-15T16:22:38.434Z,18.67
2023-05-15T16:25:06.411Z,21.73
2023-05-15T16:27:34.318Z,19.33
2023-05-15T16:30:02.224Z,18.70
2023-05-15T16:32:30.307Z,19.45
2023-05-15T16:34:58.075Z,20.45
2023-05-15T16:37:26.047Z,21.17
2023-05-15T16:39:53.709Z,19.98
2023-05-15T16:42:21.670Z,24.25
2023-05-15T16:44:49.305Z,17.30
2023-05-15T16:47:17.259Z,21.58
2023-05-15T16:49:46.344Z,19.83
2023-05-15T16:52:15.785Z,20.60
2023-05-15T16:54:43.404Z,23.20
2023-05-15T16:57:11.375Z,23.35
2023-05-15T16:59:39.131Z,23.10
2023-05-15T17:02:07.587Z,19.50
2023-05-15T17:04:37.547Z,19.65
2023-05-15T17:07:06.278Z,24.33
2023-05-15T17:09:35.215Z,23.65
2023-05-15T17:12:04.765Z,25.20
2023-05-15T17:14:32.484Z,21.90
2023-05-15T17:17:00.424Z,25.60
2023-05-15T17:19:28.072Z,22.85
2023-05-15T17:21:56.080Z,19.40
2023-05-15T17:24:23.851Z,22.75
2023-05-15T17:26:51.824Z,21.60
2023-05-15T17:29:19.457Z,18.75
2023-05-15T17:31:47.759Z,24.80
2023-05-15T17:34:15.542Z,25.08
2023-05-15T17:36:46.489Z,22.77
2023-05-15T17:39:14.503Z,24.45
2023-05-15T17:41:42.695Z,23.38
2023-05-15T17:44:10.380Z,23.20
2023-05-15T17:46:38.311Z,22.73
2023-05-15T17:49:05.997Z,23.25
2023-05-15T17:51:34.139Z,24.42
2023-05-15T17:54:02.079Z,21.35
2023-05-15T17:56:30.093Z,23.25
2023-05-15T17:58:57.811Z,23.52
2023-05-15T18:01:25.807Z,20.63
2023-05-15T18:03:53.593Z,21.85
2023-05-15T18:06:21.779Z,22.77
2023-05-15T18:08:49.944Z,23.17
2023-05-15T18:11:22.505Z,22.98
2023-05-15T18:13:50.635Z,20.33
2023-05-15T18:16:18.722Z,23.10
2023-05-15T18:18:48.695Z,22.05
2023-05-15T18:21:17.026Z,23.42
2023-05-15T18:23:44.951Z,19.83
2023-05-15T18:26:12.907Z,24.90
2023-05-15T18:28:40.757Z,22.33
2023-05-15T18:31:08.844Z,24.25
2023-05-15T18:33:36.788Z,23.08
2023-05-15T18:36:07.292Z,24.70
2023-05-15T18:38:35.387Z,24.33
2023-05-15T18:41:03.468Z,21.58
2023-05-15T18:43:31.174Z,22.63
2023-05-15T18:45:59.080Z,19.67
2023-05-15T18:48:26.865Z,20.50
2023-05-15T18:50:55.753Z,22.95
2023-05-15T18:53:23.446Z,21.90
2023-05-15T18:55:51.388Z,16.13
2023-05-15T18:58:19.024Z,17.75
2023-05-15T19:00:46.969Z,18.35
2023-05-15T19:03:15.866Z,18.42
2023-05-15T19:05:43.898Z,16.77
2023-05-15T19:08:11.648Z,15.65
2023-05-15T19:10:39.768Z,16.63
2023-05-15T19:13:08.184Z,17.85
2023-05-15T19:15:36.125Z,17.20
2023-05-15T19:18:03.809Z,17.80
2023-05-15T19:20:31.860Z,16.85
2023-05-15T19:22:59.545Z,20.17
2023-05-15T19:25:28.187Z,17.17
2023-05-15T19:27:56.213Z,18.63
2023-05-15T19:30:24.307Z,19.15
2023-05-15T19:32:52.430Z,18.52
2023-05-15T19:35:20.331Z,19.75
2023-05-15T19:37:48.059Z,18.70
2023-05-15T19:40:16.105Z,18.75
2023-05-15T19:42:43.802Z,19.23
2023-05-15T19:45:11.985Z,16.17
2023-05-15T19:47:39.950Z,20.60
2023-05-15T19:50:08.817Z,26.13
2023-05-15T19:52:36.806Z,18.85
2023-05-15T19:55:05.156Z,21.30
2023-05-15T19:57:32.970Z,18.45
2023-05-15T20:00:00.987Z,18.83
2023-05-15T20:02:28.997Z,19.05
2023-05-15T20:04:58.264Z,23.67
2023-05-15T20:07:26.078Z,22.65
2023-05-15T20:09:55.498Z,21.35
2023-05-15T20:12:23.165Z,20.63
2023-05-15T20:14:51.955Z,18.23
2023-05-15T20:17:19.661Z,21.30
2023-05-15T20:19:49.527Z,16.48
2023-05-15T20:22:18.232Z,19.42
2023-05-15T20:24:46.608Z,19.10
2023-05-15T20:27:14.337Z,20.52
2023-05-15T20:29:42.298Z,20.63
2023-05-15T20:32:10.003Z,17.50
2023-05-15T20:34:38.063Z,19.48
2023-05-15T20:37:06.418Z,18.40
2023-05-15T20:39:34.381Z,20.88
2023-05-15T20:42:02.131Z,18.00
2023-05-15T20:44:30.127Z,22.02
2023-05-15T20:46:58.205Z,17.73
2023-05-15T20:49:28.617Z,17.27
2023-05-15T20:51:56.686Z,17.17
2023-05-15T20:54:25.219Z,19.50
2023-05-15T20:56:52.854Z,18.48
2023-05-15T20:59:21.025Z,20.50
2023-05-15T21:01:48.820Z,19.83
2023-05-15T21:04:16.894Z,17.00
2023-05-15T21:06:45.680Z,21.10
2023-05-15T21:09:16.638Z,17.88
2023-05-15T21:11:46.375Z,21.05
2023-05-15T21:14:14.606Z,18.83
2023-05-15T21:16:42.263Z,17.95
2023-05-15T21:19:10.286Z,19.15
2023-05-15T21:21:38.082Z,18.52
2023-05-15T21:24:07.194Z,19.38
2023-05-15T21:26:35.120Z,16.70
2023-05-15T21:29:03.213Z,15.40
2023-05-15T21:31:31.059Z,18.30
2023-05-15T21:33:59.138Z,17.30
2023-05-15T21:36:26.810Z,20.23
2023-05-15T21:38:54.943Z,16.33
2023-05-15T21:41:22.729Z,18.15
2023-05-15T21:43:50.716Z,16.70
2023-05-15T21:46:18.486Z,16.98
2023-05-15T21:48:46.699Z,14.38
2023-05-15T21:51:14.460Z,14.10
2023-05-15T21:53:42.341Z,16.33
2023-05-15T21:56:10.013Z,13.77
2023-05-15T21:58:37.901Z,11.43
2023-05-15T22:01:05.663Z,13.70
2023-05-15T22:03:33.739Z,13.35
2023-05-15T22:06:01.608Z,13.77
2023-05-15T22:08:29.585Z,13.52
2023-05-15T22:10:57.335Z,13.35
2023-05-15T22:13:25.380Z,14.38
2023-05-15T22:15:53.231Z,13.88
2023-05-15T22:18:21.469Z,15.73
2023-05-15T22:20:49.373Z,16.88
2023-05-15T22:23:17.640Z,16.13
2023-05-15T22:25:45.447Z,15.98
2023-05-15T22:28:13.471Z,17.67
2023-05-15T22:30:41.229Z,18.85
2023-05-15T22:33:09.224Z,20.58
2023-05-15T22:35:37.281Z,18.55
2023-05-15T22:38:07.148Z,18.63
2023-05-15T22:40:34.852Z,18.73
2023-05-15T22:43:03.128Z,20.23
2023-05-15T22:45:30.819Z,19.60
2023-05-15T22:47:58.944Z,17.35
2023-05-15T22:50:26.879Z,21.73
2023-05-15T22:52:54.998Z,18.73
2023-05-15T22:55:22.630Z,20.40
2023-05-15T22:57:50.703Z,18.98
2023-05-15T23:00:19.207Z,19.58
2023-05-15T23:02:47.307Z,16.55
2023-05-15T23:05:15.133Z,16.10
2023-05-15T23:07:43.112Z,13.52
2023-05-15T23:10:11.028Z,13.82
2023-05-15T23:12:39.331Z,13.45
2023-05-15T23:15:07.382Z,12.80
2023-05-15T23:17:35.514Z,12.55
2023-05-15T23:20:03.813Z,16.10
2023-05-15T23:22:31.723Z,12.30
2023-05-15T23:25:00.845Z,11.50
2023-05-15T23:27:28.913Z,11.95
2023-05-15T23:29:56.588Z,11.32
2023-05-15T23:32:24.593Z,11.75
2023-05-15T23:34:52.972Z,10.63
2023-05-15T23:37:20.948Z,11.55
2023-05-15T23:39:48.709Z,10.90
2023-05-15T23:42:16.732Z,9.63
2023-05-15T23:44:44.927Z,13.10
2023-05-15T23:47:12.836Z,12.57
2023-05-15T23:49:40.478Z,9.00
2023-05-15T23:52:08.604Z,10.23
2023-05-15T23:54:36.230Z,9.48
2023-05-15T23:57:04.292Z,11.27
2023-05-15T23:59:31.906Z,10.15
